sensor_id;sensor_type;location;lat;lon;timestamp;pressure;altitude;pressure_sealevel;temperature;humidity
54459;BME280;40368;49.350;8.152;2022-09-09T00:00:36;997.3;;;24.33;44.53
54459;BME280;40368;49.350;8.152;2022-09-09T00:01:37;997.3;;;24.33;44.39
54459;BME280;40368;49.350;8.152;2022-09-09T00:02:35;997.3;;;24.33;44.3
54459;BME280;40368;49.350;8.152;2022-09-09T00:03:38;997.3;;;24.32;44.38
54459;BME280;40368;49.350;8.152;2022-09-09T00:04:36;997.3;;;24.31;44.25
54459;BME280;40368;49.350;8.152;2022-09-09T00:05:37;997.2;;;24.29;44.55
54459;BME280;40368;49.350;8.152;2022-09-09T00:06:42;997.2;;;24.26;44.63
54459;BME280;40368;49.350;8.152;2022-09-09T00:07:37;997.2;;;24.22;44.74
54459;BME280;40368;49.350;8.152;2022-09-09T00:08:38;997.2;;;24.24;44.45
54459;BME280;40368;49.350;8.152;2022-09-09T00:09:39;997.2;;;24.25;44.45
54459;BME280;40368;49.350;8.152;2022-09-09T00:10:36;997.2;;;24.26;44.44
54459;BME280;40368;49.350;8.152;2022-09-09T00:11:40;997.2;;;24.27;44.63
54459;BME280;40368;49.350;8.152;2022-09-09T00:12:36;997.2;;;24.26;44.35
54459;BME280;40368;49.350;8.152;2022-09-09T00:13:37;997.2;;;24.25;44.49
54459;BME280;40368;49.350;8.152;2022-09-09T00:14:37;997.1;;;24.26;44.64
54459;BME280;40368;49.350;8.152;2022-09-09T00:15:37;997.2;;;24.25;44.78
54459;BME280;40368;49.350;8.152;2022-09-09T00:16:36;997.1;;;24.23;44.59
54459;BME280;40368;49.350;8.152;2022-09-09T00:17:36;997.1;;;24.23;44.55
54459;BME280;40368;49.350;8.152;2022-09-09T00:18:37;997.1;;;24.25;44.5
54459;BME280;40368;49.350;8.152;2022-09-09T00:19:37;997.1;;;24.25;44.36
54459;BME280;40368;49.350;8.152;2022-09-09T00:20:36;997;;;24.27;44.57
54459;BME280;40368;49.350;8.152;2022-09-09T00:21:36;997.1;;;24.27;44.32
54459;BME280;40368;49.350;8.152;2022-09-09T00:22:35;997;;;24.27;44.45
54459;BME280;40368;49.350;8.152;2022-09-09T00:23:37;997;;;24.27;44.49
54459;BME280;40368;49.350;8.152;2022-09-09T00:24:38;997;;;24.27;44.58
54459;BME280;40368;49.350;8.152;2022-09-09T00:25:37;996.9;;;24.27;44.41
54459;BME280;40368;49.350;8.152;2022-09-09T00:26:37;997;;;24.25;44.24
54459;BME280;40368;49.350;8.152;2022-09-09T00:27:36;997;;;24.24;44.36
54459;BME280;40368;49.350;8.152;2022-09-09T00:28:37;997;;;24.25;44.41
54459;BME280;40368;49.350;8.152;2022-09-09T00:29:37;996.9;;;24.26;44.42
54459;BME280;40368;49.350;8.152;2022-09-09T00:30:35;996.9;;;24.27;44.43
54459;BME280;40368;49.350;8.152;2022-09-09T00:31:36;997;;;24.27;44.47
54459;BME280;40368;49.350;8.152;2022-09-09T00:32:35;997;;;24.26;44.35
54459;BME280;40368;49.350;8.152;2022-09-09T00:33:35;997;;;24.24;44.3
54459;BME280;40368;49.350;8.152;2022-09-09T00:34:35;996.9;;;24.22;44.28
54459;BME280;40368;49.350;8.152;2022-09-09T00:35:36;996.9;;;24.21;44.37
54459;BME280;40368;49.350;8.152;2022-09-09T00:36:35;997;;;24.2;44.42
54459;BME280;40368;49.350;8.152;2022-09-09T00:37:35;997;;;24.18;44.47
54459;BME280;40368;49.350;8.152;2022-09-09T00:38:36;997;;;24.19;44.58
54459;BME280;40368;49.350;8.152;2022-09-09T00:39:37;996.9;;;24.2;44.29
54459;BME280;40368;49.350;8.152;2022-09-09T00:40:38;997;;;24.18;44.46
54459;BME280;40368;49.350;8.152;2022-09-09T00:41:39;997;;;24.15;44.55
54459;BME280;40368;49.350;8.152;2022-09-09T00:42:37;997;;;24.13;44.55
54459;BME280;40368;49.350;8.152;2022-09-09T00:43:36;997;;;24.13;44.63
54459;BME280;40368;49.350;8.152;2022-09-09T00:44:36;996.9;;;24.13;44.43
54459;BME280;40368;49.350;8.152;2022-09-09T00:45:42;997;;;24.13;44.49
54459;BME280;40368;49.350;8.152;2022-09-09T00:46:40;996.9;;;24.11;44.76
54459;BME280;40368;49.350;8.152;2022-09-09T00:47:38;997;;;24.08;44.8
54459;BME280;40368;49.350;8.152;2022-09-09T00:48:37;997;;;24.05;44.93
54459;BME280;40368;49.350;8.152;2022-09-09T00:49:38;997;;;24.03;44.64
54459;BME280;40368;49.350;8.152;2022-09-09T00:50:38;996.9;;;24.02;44.79
54459;BME280;40368;49.350;8.152;2022-09-09T00:51:39;996.9;;;24.02;44.71
54459;BME280;40368;49.350;8.152;2022-09-09T00:52:36;996.9;;;24.02;44.87
54459;BME280;40368;49.350;8.152;2022-09-09T00:53:37;996.9;;;24.02;44.79
54459;BME280;40368;49.350;8.152;2022-09-09T00:54:38;996.9;;;24.03;44.61
54459;BME280;40368;49.350;8.152;2022-09-09T00:55:38;996.9;;;24.04;44.61
54459;BME280;40368;49.350;8.152;2022-09-09T00:56:36;997;;;24.05;44.62
54459;BME280;40368;49.350;8.152;2022-09-09T00:57:36;997;;;24.02;44.64
54459;BME280;40368;49.350;8.152;2022-09-09T00:58:35;997.1;;;24.02;44.92
54459;BME280;40368;49.350;8.152;2022-09-09T00:59:38;997.1;;;24.01;44.64
54459;BME280;40368;49.350;8.152;2022-09-09T01:00:38;997.1;;;23.98;44.86
54459;BME280;40368;49.350;8.152;2022-09-09T01:01:36;997.1;;;23.97;44.87
54459;BME280;40368;49.350;8.152;2022-09-09T01:02:38;997.1;;;23.98;45.06
54459;BME280;40368;49.350;8.152;2022-09-09T01:04:35;997.1;;;23.97;45.05
54459;BME280;40368;49.350;8.152;2022-09-09T01:05:37;997.1;;;24;45.12
54459;BME280;40368;49.350;8.152;2022-09-09T01:06:36;997.1;;;24.01;45.11
54459;BME280;40368;49.350;8.152;2022-09-09T01:07:35;997.1;;;24.01;45.1
54459;BME280;40368;49.350;8.152;2022-09-09T01:08:53;997.1;;;24.03;45.18
54459;BME280;40368;49.350;8.152;2022-09-09T01:09:51;997.1;;;24.04;45.28
54459;BME280;40368;49.350;8.152;2022-09-09T01:10:47;997.1;;;24.06;45.09
54459;BME280;40368;49.350;8.152;2022-09-09T01:11:49;997;;;24.04;45.23
54459;BME280;40368;49.350;8.152;2022-09-09T01:12:46;997;;;24.04;45.17
54459;BME280;40368;49.350;8.152;2022-09-09T01:13:46;997;;;24.05;45.43
54459;BME280;40368;49.350;8.152;2022-09-09T01:14:39;997;;;24.05;45.2
54459;BME280;40368;49.350;8.152;2022-09-09T01:15:35;997;;;24.04;45.01
54459;BME280;40368;49.350;8.152;2022-09-09T01:16:35;997;;;24.05;44.94
54459;BME280;40368;49.350;8.152;2022-09-09T01:17:38;996.9;;;24.05;45.28
54459;BME280;40368;49.350;8.152;2022-09-09T01:18:36;996.9;;;24.03;45.29
54459;BME280;40368;49.350;8.152;2022-09-09T01:19:38;996.9;;;24.02;45.67
54459;BME280;40368;49.350;8.152;2022-09-09T01:20:37;997;;;24;45.41
54459;BME280;40368;49.350;8.152;2022-09-09T01:21:38;996.9;;;24.01;45.38
54459;BME280;40368;49.350;8.152;2022-09-09T01:22:36;996.9;;;24.04;45.66
54459;BME280;40368;49.350;8.152;2022-09-09T01:23:43;996.9;;;24.04;45.31
54459;BME280;40368;49.350;8.152;2022-09-09T01:24:37;996.9;;;24.05;45.18
54459;BME280;40368;49.350;8.152;2022-09-09T01:26:10;996.9;;;24.06;45
54459;BME280;40368;49.350;8.152;2022-09-09T01:26:36;996.9;;;24.07;44.83
54459;BME280;40368;49.350;8.152;2022-09-09T01:27:35;996.9;;;24.07;45.22
54459;BME280;40368;49.350;8.152;2022-09-09T01:28:36;996.9;;;24.08;45.22
54459;BME280;40368;49.350;8.152;2022-09-09T01:29:35;996.9;;;24.09;45.23
54459;BME280;40368;49.350;8.152;2022-09-09T01:30:38;996.8;;;24.08;45.56
54459;BME280;40368;49.350;8.152;2022-09-09T01:31:36;996.8;;;24.05;45
54459;BME280;40368;49.350;8.152;2022-09-09T01:32:38;996.8;;;24.04;45.06
54459;BME280;40368;49.350;8.152;2022-09-09T01:33:35;996.9;;;24.05;44.94
54459;BME280;40368;49.350;8.152;2022-09-09T01:34:36;996.9;;;24.04;44.66
54459;BME280;40368;49.350;8.152;2022-09-09T01:35:37;996.8;;;24.03;44.66
54459;BME280;40368;49.350;8.152;2022-09-09T01:36:38;996.8;;;24.04;44.45
54459;BME280;40368;49.350;8.152;2022-09-09T01:37:35;996.8;;;24.04;44.33
54459;BME280;40368;49.350;8.152;2022-09-09T01:38:35;996.8;;;23.98;44.17
54459;BME280;40368;49.350;8.152;2022-09-09T01:39:36;996.9;;;23.9;44.11
54459;BME280;40368;49.350;8.152;2022-09-09T01:40:35;996.9;;;23.83;44.34
54459;BME280;40368;49.350;8.152;2022-09-09T01:41:35;996.9;;;23.77;44.46
54459;BME280;40368;49.350;8.152;2022-09-09T01:42:35;996.9;;;23.73;44.45
54459;BME280;40368;49.350;8.152;2022-09-09T01:43:36;996.8;;;23.72;44.53
54459;BME280;40368;49.350;8.152;2022-09-09T01:44:36;996.9;;;23.75;44.39
54459;BME280;40368;49.350;8.152;2022-09-09T01:45:36;996.8;;;23.77;44.48
54459;BME280;40368;49.350;8.152;2022-09-09T01:46:35;996.9;;;23.82;44.68
54459;BME280;40368;49.350;8.152;2022-09-09T01:47:35;996.9;;;23.84;44.33
54459;BME280;40368;49.350;8.152;2022-09-09T01:48:36;996.8;;;23.89;44.57
54459;BME280;40368;49.350;8.152;2022-09-09T01:49:35;996.8;;;23.93;44.72
54459;BME280;40368;49.350;8.152;2022-09-09T01:50:35;996.8;;;23.97;44.31
54459;BME280;40368;49.350;8.152;2022-09-09T01:51:36;996.9;;;24;44.65
54459;BME280;40368;49.350;8.152;2022-09-09T01:52:36;996.9;;;24.03;44.85
54459;BME280;40368;49.350;8.152;2022-09-09T01:53:35;996.8;;;24.05;44.61
54459;BME280;40368;49.350;8.152;2022-09-09T01:54:36;996.9;;;24.07;44.87
54459;BME280;40368;49.350;8.152;2022-09-09T01:55:37;996.9;;;24.07;44.9
54459;BME280;40368;49.350;8.152;2022-09-09T01:56:39;996.9;;;24.06;45.55
54459;BME280;40368;49.350;8.152;2022-09-09T01:57:37;997;;;24.06;45.17
54459;BME280;40368;49.350;8.152;2022-09-09T01:58:38;996.9;;;24.05;45.07
54459;BME280;40368;49.350;8.152;2022-09-09T01:59:41;996.9;;;24.07;45.02
54459;BME280;40368;49.350;8.152;2022-09-09T02:03:35;996.9;;;24.05;45.16
54459;BME280;40368;49.350;8.152;2022-09-09T02:04:36;996.9;;;24.06;45.22
54459;BME280;40368;49.350;8.152;2022-09-09T02:05:36;996.9;;;24.07;44.87
54459;BME280;40368;49.350;8.152;2022-09-09T02:06:36;996.8;;;24.07;45.2
54459;BME280;40368;49.350;8.152;2022-09-09T02:07:38;996.9;;;24.06;45.24
54459;BME280;40368;49.350;8.152;2022-09-09T02:08:37;996.9;;;24.05;44.96
54459;BME280;40368;49.350;8.152;2022-09-09T02:09:35;996.8;;;24.05;45.15
54459;BME280;40368;49.350;8.152;2022-09-09T02:10:37;996.8;;;24.04;44.93
54459;BME280;40368;49.350;8.152;2022-09-09T02:11:35;996.8;;;24.05;44.88
54459;BME280;40368;49.350;8.152;2022-09-09T02:12:35;996.8;;;24.05;44.79
54459;BME280;40368;49.350;8.152;2022-09-09T02:13:36;996.8;;;24.06;45.04
54459;BME280;40368;49.350;8.152;2022-09-09T02:14:36;996.9;;;24.07;45.21
54459;BME280;40368;49.350;8.152;2022-09-09T02:15:39;996.8;;;24.07;44.95
54459;BME280;40368;49.350;8.152;2022-09-09T02:16:37;996.9;;;24.07;45.04
54459;BME280;40368;49.350;8.152;2022-09-09T02:17:36;996.8;;;24.06;44.9
54459;BME280;40368;49.350;8.152;2022-09-09T02:18:38;996.8;;;24.07;44.67
54459;BME280;40368;49.350;8.152;2022-09-09T02:19:36;996.9;;;24.07;45.06
54459;BME280;40368;49.350;8.152;2022-09-09T02:20:36;996.9;;;24.04;45.02
54459;BME280;40368;49.350;8.152;2022-09-09T02:21:35;996.9;;;24.03;45.24
54459;BME280;40368;49.350;8.152;2022-09-09T02:22:36;996.9;;;24.04;45.08
54459;BME280;40368;49.350;8.152;2022-09-09T02:23:35;996.9;;;24.03;45.07
54459;BME280;40368;49.350;8.152;2022-09-09T02:24:36;996.9;;;24.03;45.06
54459;BME280;40368;49.350;8.152;2022-09-09T02:25:36;997;;;24.01;45.3
54459;BME280;40368;49.350;8.152;2022-09-09T02:26:37;996.9;;;23.97;45.44
54459;BME280;40368;49.350;8.152;2022-09-09T02:27:35;996.9;;;23.96;45.19
54459;BME280;40368;49.350;8.152;2022-09-09T02:28:35;996.9;;;23.95;45.26
54459;BME280;40368;49.350;8.152;2022-09-09T02:29:36;996.9;;;23.95;45.27
54459;BME280;40368;49.350;8.152;2022-09-09T02:30:36;996.9;;;23.94;45.27
54459;BME280;40368;49.350;8.152;2022-09-09T02:31:35;996.9;;;23.89;45.3
54459;BME280;40368;49.350;8.152;2022-09-09T02:32:35;996.9;;;23.89;44.97
54459;BME280;40368;49.350;8.152;2022-09-09T02:33:37;996.9;;;23.88;44.65
54459;BME280;40368;49.350;8.152;2022-09-09T02:34:36;996.8;;;23.78;44.88
54459;BME280;40368;49.350;8.152;2022-09-09T02:35:35;996.8;;;23.75;44.59
54459;BME280;40368;49.350;8.152;2022-09-09T02:36:36;996.8;;;23.76;44.61
54459;BME280;40368;49.350;8.152;2022-09-09T02:37:36;996.9;;;23.79;44.54
54459;BME280;40368;49.350;8.152;2022-09-09T02:38:37;996.8;;;23.82;45.4
54459;BME280;40368;49.350;8.152;2022-09-09T02:39:35;996.8;;;23.82;45.81
54459;BME280;40368;49.350;8.152;2022-09-09T02:40:35;996.9;;;23.78;45.32
54459;BME280;40368;49.350;8.152;2022-09-09T02:41:36;996.8;;;23.81;45.36
54459;BME280;40368;49.350;8.152;2022-09-09T02:42:38;996.9;;;23.85;45.6
54459;BME280;40368;49.350;8.152;2022-09-09T02:43:35;996.9;;;23.87;45.59
54459;BME280;40368;49.350;8.152;2022-09-09T02:44:35;996.9;;;23.88;45.79
54459;BME280;40368;49.350;8.152;2022-09-09T02:45:36;996.8;;;23.88;45.66
54459;BME280;40368;49.350;8.152;2022-09-09T02:46:37;996.9;;;23.85;45.76
54459;BME280;40368;49.350;8.152;2022-09-09T02:47:37;996.9;;;23.83;45.69
54459;BME280;40368;49.350;8.152;2022-09-09T02:48:36;996.9;;;23.81;46.57
54459;BME280;40368;49.350;8.152;2022-09-09T02:49:38;996.9;;;23.77;46.57
54459;BME280;40368;49.350;8.152;2022-09-09T02:50:37;996.9;;;23.77;46
54459;BME280;40368;49.350;8.152;2022-09-09T02:51:37;996.9;;;23.76;45.88
54459;BME280;40368;49.350;8.152;2022-09-09T02:52:38;996.9;;;23.77;45.99
54459;BME280;40368;49.350;8.152;2022-09-09T02:53:38;996.9;;;23.78;46.13
54459;BME280;40368;49.350;8.152;2022-09-09T02:54:37;996.9;;;23.79;46.14
54459;BME280;40368;49.350;8.152;2022-09-09T02:55:38;996.9;;;23.8;45.87
54459;BME280;40368;49.350;8.152;2022-09-09T02:56:37;996.9;;;23.79;46.1
54459;BME280;40368;49.350;8.152;2022-09-09T02:57:35;996.9;;;23.79;46.09
54459;BME280;40368;49.350;8.152;2022-09-09T02:58:35;996.9;;;23.78;46.25
54459;BME280;40368;49.350;8.152;2022-09-09T02:59:36;996.9;;;23.74;46.57
54459;BME280;40368;49.350;8.152;2022-09-09T03:00:36;996.9;;;23.72;46.98
54459;BME280;40368;49.350;8.152;2022-09-09T03:01:35;996.9;;;23.67;46.64
54459;BME280;40368;49.350;8.152;2022-09-09T03:02:35;996.9;;;23.67;46.72
54459;BME280;40368;49.350;8.152;2022-09-09T03:03:35;996.9;;;23.67;46.79
54459;BME280;40368;49.350;8.152;2022-09-09T03:04:35;996.9;;;23.64;47.12
54459;BME280;40368;49.350;8.152;2022-09-09T03:05:36;996.9;;;23.64;46.97
54459;BME280;40368;49.350;8.152;2022-09-09T03:06:35;996.9;;;23.63;47.01
54459;BME280;40368;49.350;8.152;2022-09-09T03:07:35;997;;;23.63;47.27
54459;BME280;40368;49.350;8.152;2022-09-09T03:08:35;997;;;23.62;47.03
54459;BME280;40368;49.350;8.152;2022-09-09T03:09:35;996.9;;;23.61;47.09
54459;BME280;40368;49.350;8.152;2022-09-09T03:10:35;997;;;23.63;47.18
54459;BME280;40368;49.350;8.152;2022-09-09T03:11:36;997;;;23.63;47.09
54459;BME280;40368;49.350;8.152;2022-09-09T03:12:35;997;;;23.61;47.25
54459;BME280;40368;49.350;8.152;2022-09-09T03:13:35;996.9;;;23.58;47.39
54459;BME280;40368;49.350;8.152;2022-09-09T03:14:35;996.9;;;23.54;47.45
54459;BME280;40368;49.350;8.152;2022-09-09T03:15:35;996.9;;;23.54;47.48
54459;BME280;40368;49.350;8.152;2022-09-09T03:16:35;996.9;;;23.53;47.52
54459;BME280;40368;49.350;8.152;2022-09-09T03:17:35;996.9;;;23.52;48.19
54459;BME280;40368;49.350;8.152;2022-09-09T03:18:35;997;;;23.5;47.69
54459;BME280;40368;49.350;8.152;2022-09-09T03:19:36;996.9;;;23.49;47.94
54459;BME280;40368;49.350;8.152;2022-09-09T03:20:37;996.9;;;23.5;47.48
54459;BME280;40368;49.350;8.152;2022-09-09T03:21:35;996.9;;;23.51;47.56
54459;BME280;40368;49.350;8.152;2022-09-09T03:22:35;996.9;;;23.49;48.18
54459;BME280;40368;49.350;8.152;2022-09-09T03:23:35;996.9;;;23.46;48.17
54459;BME280;40368;49.350;8.152;2022-09-09T03:24:35;996.8;;;23.45;47.99
54459;BME280;40368;49.350;8.152;2022-09-09T03:25:35;996.9;;;23.4;48.74
54459;BME280;40368;49.350;8.152;2022-09-09T03:26:36;996.8;;;23.37;48.25
54459;BME280;40368;49.350;8.152;2022-09-09T03:27:35;996.9;;;23.35;49.2
54459;BME280;40368;49.350;8.152;2022-09-09T03:28:35;996.9;;;23.32;48.73
54459;BME280;40368;49.350;8.152;2022-09-09T03:29:35;996.9;;;23.32;48.64
54459;BME280;40368;49.350;8.152;2022-09-09T03:30:36;996.9;;;23.33;48.09
54459;BME280;40368;49.350;8.152;2022-09-09T03:31:35;997;;;23.33;48.14
54459;BME280;40368;49.350;8.152;2022-09-09T03:32:37;997;;;23.3;49.31
54459;BME280;40368;49.350;8.152;2022-09-09T03:33:36;997;;;23.28;48.4
54459;BME280;40368;49.350;8.152;2022-09-09T03:34:35;997;;;23.28;48.51
54459;BME280;40368;49.350;8.152;2022-09-09T03:35:36;997;;;23.28;49.27
54459;BME280;40368;49.350;8.152;2022-09-09T03:36:36;997;;;23.24;48.8
54459;BME280;40368;49.350;8.152;2022-09-09T03:37:35;996.9;;;23.22;48.71
54459;BME280;40368;49.350;8.152;2022-09-09T03:38:36;997;;;23.25;48.33
54459;BME280;40368;49.350;8.152;2022-09-09T03:39:35;997;;;23.26;49.11
54459;BME280;40368;49.350;8.152;2022-09-09T03:40:35;997;;;23.25;48.44
54459;BME280;40368;49.350;8.152;2022-09-09T03:41:36;997;;;23.27;48.07
54459;BME280;40368;49.350;8.152;2022-09-09T03:42:36;997;;;23.26;49.07
54459;BME280;40368;49.350;8.152;2022-09-09T03:43:35;997;;;23.23;48.56
54459;BME280;40368;49.350;8.152;2022-09-09T03:44:36;997;;;23.25;48.3
54459;BME280;40368;49.350;8.152;2022-09-09T03:45:35;997;;;23.27;48.2
54459;BME280;40368;49.350;8.152;2022-09-09T03:46:36;997;;;23.3;48.09
54459;BME280;40368;49.350;8.152;2022-09-09T03:47:36;996.9;;;23.3;48.27
54459;BME280;40368;49.350;8.152;2022-09-09T03:48:35;996.9;;;23.32;48.66
54459;BME280;40368;49.350;8.152;2022-09-09T03:49:36;996.9;;;23.29;48.39
54459;BME280;40368;49.350;8.152;2022-09-09T03:50:35;997;;;23.27;49.14
54459;BME280;40368;49.350;8.152;2022-09-09T03:51:35;997;;;23.21;49.4
54459;BME280;40368;49.350;8.152;2022-09-09T03:52:36;997;;;23.19;48.62
54459;BME280;40368;49.350;8.152;2022-09-09T03:53:36;997;;;23.19;48.53
54459;BME280;40368;49.350;8.152;2022-09-09T03:54:35;997;;;23.2;48.68
54459;BME280;40368;49.350;8.152;2022-09-09T03:55:36;997;;;23.21;48.68
54459;BME280;40368;49.350;8.152;2022-09-09T03:56:36;997;;;23.23;48.95
54459;BME280;40368;49.350;8.152;2022-09-09T03:57:35;997;;;23.24;48.39
54459;BME280;40368;49.350;8.152;2022-09-09T03:58:36;997;;;23.25;48.33
54459;BME280;40368;49.350;8.152;2022-09-09T03:59:36;997;;;23.24;48.6
54459;BME280;40368;49.350;8.152;2022-09-09T04:00:36;997;;;23.25;48.35
54459;BME280;40368;49.350;8.152;2022-09-09T04:01:37;997;;;23.25;48.69
54459;BME280;40368;49.350;8.152;2022-09-09T04:02:36;997;;;23.23;48.7
54459;BME280;40368;49.350;8.152;2022-09-09T04:03:36;997;;;23.24;48.52
54459;BME280;40368;49.350;8.152;2022-09-09T04:04:35;997;;;23.19;49.08
54459;BME280;40368;49.350;8.152;2022-09-09T04:05:36;997;;;23.17;48.91
54459;BME280;40368;49.350;8.152;2022-09-09T04:06:36;997.1;;;23.15;48.92
54459;BME280;40368;49.350;8.152;2022-09-09T04:07:36;997;;;23.15;48.72
54459;BME280;40368;49.350;8.152;2022-09-09T04:08:35;997;;;23.17;48.64
54459;BME280;40368;49.350;8.152;2022-09-09T04:09:36;997;;;23.14;49.62
54459;BME280;40368;49.350;8.152;2022-09-09T04:10:35;997;;;23.11;49.06
54459;BME280;40368;49.350;8.152;2022-09-09T04:11:35;997;;;23.12;49.21
54459;BME280;40368;49.350;8.152;2022-09-09T04:12:36;997;;;23.12;49.15
54459;BME280;40368;49.350;8.152;2022-09-09T04:13:36;997;;;23.12;49.61
54459;BME280;40368;49.350;8.152;2022-09-09T04:14:36;997;;;23.12;48.95
54459;BME280;40368;49.350;8.152;2022-09-09T04:15:36;997;;;23.16;48.64
54459;BME280;40368;49.350;8.152;2022-09-09T04:16:35;997.1;;;23.18;48.88
54459;BME280;40368;49.350;8.152;2022-09-09T04:17:36;997.1;;;23.15;49.11
54459;BME280;40368;49.350;8.152;2022-09-09T04:18:35;997.1;;;23.15;48.98
54459;BME280;40368;49.350;8.152;2022-09-09T04:19:35;997.1;;;23.2;48.72
54459;BME280;40368;49.350;8.152;2022-09-09T04:20:36;997.1;;;23.2;48.73
54459;BME280;40368;49.350;8.152;2022-09-09T04:21:35;997.1;;;23.2;49.01
54459;BME280;40368;49.350;8.152;2022-09-09T04:22:36;997.1;;;23.22;48.79
54459;BME280;40368;49.350;8.152;2022-09-09T04:23:35;997.1;;;23.23;48.76
54459;BME280;40368;49.350;8.152;2022-09-09T04:24:35;997.1;;;23.24;48.77
54459;BME280;40368;49.350;8.152;2022-09-09T04:25:36;997.1;;;23.24;48.96
54459;BME280;40368;49.350;8.152;2022-09-09T04:26:36;997.2;;;23.25;48.75
54459;BME280;40368;49.350;8.152;2022-09-09T04:27:36;997.1;;;23.24;49.44
54459;BME280;40368;49.350;8.152;2022-09-09T04:28:36;997.1;;;23.22;48.72
54459;BME280;40368;49.350;8.152;2022-09-09T04:29:37;997.1;;;23.23;48.61
54459;BME280;40368;49.350;8.152;2022-09-09T04:30:35;997.1;;;23.22;48.64
54459;BME280;40368;49.350;8.152;2022-09-09T04:31:36;997.1;;;23.22;49.41
54459;BME280;40368;49.350;8.152;2022-09-09T04:32:36;997.1;;;23.2;48.64
54459;BME280;40368;49.350;8.152;2022-09-09T04:33:35;997.2;;;23.2;48.86
54459;BME280;40368;49.350;8.152;2022-09-09T04:34:36;997.1;;;23.17;49.36
54459;BME280;40368;49.350;8.152;2022-09-09T04:35:36;997.1;;;23.14;49.17
54459;BME280;40368;49.350;8.152;2022-09-09T04:36:37;997.1;;;23.15;48.92
54459;BME280;40368;49.350;8.152;2022-09-09T04:37:36;997.1;;;23.16;49.06
54459;BME280;40368;49.350;8.152;2022-09-09T04:38:36;997.1;;;23.12;49.09
54459;BME280;40368;49.350;8.152;2022-09-09T04:39:36;997.2;;;23.11;49.06
54459;BME280;40368;49.350;8.152;2022-09-09T04:40:36;997.1;;;23.1;48.9
54459;BME280;40368;49.350;8.152;2022-09-09T04:41:35;997.1;;;23.12;48.8
54459;BME280;40368;49.350;8.152;2022-09-09T04:42:36;997.2;;;23.13;48.6
54459;BME280;40368;49.350;8.152;2022-09-09T04:43:35;997.2;;;23.13;48.82
54459;BME280;40368;49.350;8.152;2022-09-09T04:44:36;997.2;;;23.13;48.83
54459;BME280;40368;49.350;8.152;2022-09-09T04:45:35;997.2;;;23.14;48.99
54459;BME280;40368;49.350;8.152;2022-09-09T04:46:35;997.2;;;23.13;48.78
54459;BME280;40368;49.350;8.152;2022-09-09T04:47:36;997.2;;;23.11;48.92
54459;BME280;40368;49.350;8.152;2022-09-09T04:48:36;997.2;;;23.12;48.71
54459;BME280;40368;49.350;8.152;2022-09-09T04:49:35;997.2;;;23.13;48.68
54459;BME280;40368;49.350;8.152;2022-09-09T04:50:36;997.2;;;23.13;49.05
54459;BME280;40368;49.350;8.152;2022-09-09T04:51:36;997.3;;;23.13;48.7
54459;BME280;40368;49.350;8.152;2022-09-09T04:52:35;997.3;;;23.12;48.78
54459;BME280;40368;49.350;8.152;2022-09-09T04:53:35;997.2;;;23.12;48.64
54459;BME280;40368;49.350;8.152;2022-09-09T04:54:36;997.2;;;23.11;48.77
54459;BME280;40368;49.350;8.152;2022-09-09T04:55:35;997.2;;;23.11;48.91
54459;BME280;40368;49.350;8.152;2022-09-09T04:56:36;997.2;;;23.1;48.75
54459;BME280;40368;49.350;8.152;2022-09-09T04:57:35;997.3;;;23.1;48.73
54459;BME280;40368;49.350;8.152;2022-09-09T04:58:36;997.3;;;23.06;49.06
54459;BME280;40368;49.350;8.152;2022-09-09T04:59:35;997.2;;;23.04;48.88
54459;BME280;40368;49.350;8.152;2022-09-09T05:00:35;997.2;;;23.06;48.79
54459;BME280;40368;49.350;8.152;2022-09-09T05:01:36;997.3;;;23.06;49.02
54459;BME280;40368;49.350;8.152;2022-09-09T05:02:36;997.2;;;23.04;49.04
54459;BME280;40368;49.350;8.152;2022-09-09T05:03:36;997.2;;;23.05;49.1
54459;BME280;40368;49.350;8.152;2022-09-09T05:04:36;997.2;;;23.04;48.79
54459;BME280;40368;49.350;8.152;2022-09-09T05:05:36;997.2;;;23.02;48.85
54459;BME280;40368;49.350;8.152;2022-09-09T05:06:36;997.2;;;23.02;48.83
54459;BME280;40368;49.350;8.152;2022-09-09T05:07:36;997.2;;;23.02;48.61
54459;BME280;40368;49.350;8.152;2022-09-09T05:08:36;997.3;;;23.02;48.74
54459;BME280;40368;49.350;8.152;2022-09-09T05:09:36;997.4;;;23.02;48.75
54459;BME280;40368;49.350;8.152;2022-09-09T05:10:36;997.4;;;23.02;48.61
54459;BME280;40368;49.350;8.152;2022-09-09T05:11:36;997.4;;;23.05;48.74
54459;BME280;40368;49.350;8.152;2022-09-09T05:12:36;997.4;;;23.05;48.6
54459;BME280;40368;49.350;8.152;2022-09-09T05:13:35;997.5;;;23.07;49.03
54459;BME280;40368;49.350;8.152;2022-09-09T05:14:36;997.5;;;23.07;48.73
54459;BME280;40368;49.350;8.152;2022-09-09T05:15:36;997.5;;;23.06;48.75
54459;BME280;40368;49.350;8.152;2022-09-09T05:16:35;997.5;;;23.06;48.73
54459;BME280;40368;49.350;8.152;2022-09-09T05:17:36;997.5;;;23.05;49
54459;BME280;40368;49.350;8.152;2022-09-09T05:18:36;997.5;;;23.03;48.73
54459;BME280;40368;49.350;8.152;2022-09-09T05:19:35;997.4;;;23.03;48.8
54459;BME280;40368;49.350;8.152;2022-09-09T05:20:36;997.4;;;23.05;48.61
54459;BME280;40368;49.350;8.152;2022-09-09T05:21:36;997.4;;;23.05;48.66
54459;BME280;40368;49.350;8.152;2022-09-09T05:22:36;997.4;;;23.07;48.59
54459;BME280;40368;49.350;8.152;2022-09-09T05:23:36;997.4;;;23.07;48.54
54459;BME280;40368;49.350;8.152;2022-09-09T05:24:35;997.5;;;23.06;49.16
54459;BME280;40368;49.350;8.152;2022-09-09T05:25:36;997.5;;;23.04;48.74
54459;BME280;40368;49.350;8.152;2022-09-09T05:26:36;997.5;;;23.04;48.76
54459;BME280;40368;49.350;8.152;2022-09-09T05:27:36;997.5;;;23.05;48.64
54459;BME280;40368;49.350;8.152;2022-09-09T05:28:35;997.5;;;23.06;48.67
54459;BME280;40368;49.350;8.152;2022-09-09T05:29:35;997.5;;;23.06;48.67
54459;BME280;40368;49.350;8.152;2022-09-09T05:30:36;997.5;;;23.04;49.14
54459;BME280;40368;49.350;8.152;2022-09-09T05:31:36;997.5;;;23.01;48.95
54459;BME280;40368;49.350;8.152;2022-09-09T05:32:36;997.5;;;23.01;48.87
54459;BME280;40368;49.350;8.152;2022-09-09T05:33:36;997.5;;;23.02;48.77
54459;BME280;40368;49.350;8.152;2022-09-09T05:34:36;997.5;;;23.02;48.87
54459;BME280;40368;49.350;8.152;2022-09-09T05:35:36;997.5;;;23.01;48.77
54459;BME280;40368;49.350;8.152;2022-09-09T05:36:35;997.5;;;23.03;48.57
54459;BME280;40368;49.350;8.152;2022-09-09T05:37:36;997.5;;;23.04;48.67